PWSweather.com
Personal Weather Stations
Station Observations
KNYSYRAC2
Fairmount Hills, Fairmount, NY 13219

Fairmount HillsFairmount, NY 13219

Lat: 43.03602, Lon: -76.247151

Elevation: 663

Station Type: Ambient Weather WS-2080

http://weather.cerchia.com

High Low Average
Temperature 33.9°F1.1°F 26.1°F-3.3°F 29.4°F-1.4°F
Dew Point 30.7°F-0.7°F 23.8°F-4.6°F 28.0°F-2.2°F
Winds 3.6 mph NNE5.8 mph NNE Calm Calm 0.5 mph 0.8 mph
Wind Gusts 8.7 mph14.0 mph -- 2.0 mph3.2 mph
Humidity 100% 75% 94%
Pressure 29.63 in1003.40 in 29.47 in998.00 in -
Precipitation 0.34 in8.60 in - -
Hour Temp Dew Point Humidity Winds Wind Gusts Pressure Precip Precip Rate Daily Precip Total
12:00 AM 30.8°F-0.7°C 23.8°F-4.6°C 75% 0.3 mph E0.5 kmh E 2.8 mph4.5 kmh 29.63 in1003.4 mb 0.00 in0.0 mm 0.00 in0.0 mm 0.00 in0.0 mm
12:15 AM 30.6°F-0.8°C 24.0°F-4.4°C 76% 0.3 mph ENE0.5 kmh ENE 2.8 mph4.5 kmh 29.63 in1003.4 mb 0.00 in0.0 mm 0.00 in0.0 mm 0.00 in0.0 mm
12:30 AM 30.1°F-1.1°C 24.1°F-4.4°C 78% 0.2 mph ENE0.3 kmh ENE 2.8 mph4.5 kmh 29.62 in1003.0 mb 0.00 in0.0 mm 0.00 in0.0 mm 0.00 in0.0 mm
12:45 AM 29.6°F-1.3°C 24.4°F-4.2°C 81% 0.5 mph E0.8 kmh E 2.8 mph4.5 kmh 29.62 in1003.0 mb 0.00 in0.0 mm 0.00 in0.0 mm 0.00 in0.0 mm
01:00 AM 29.2°F-1.6°C 25.3°F-3.7°C 85% 0.2 mph E0.3 kmh E 2.8 mph4.5 kmh 29.62 in1003.0 mb 0.00 in0.0 mm 0.00 in0.0 mm 0.00 in0.0 mm
01:15 AM 28.8°F-1.8°C 26.3°F-3.2°C 90% 0.2 mph E0.3 kmh E 3.9 mph6.3 kmh 29.62 in1003.0 mb 0.00 in0.0 mm 0.00 in0.0 mm 0.00 in0.0 mm
01:30 AM 28.7°F-1.8°C 26.4°F-3.1°C 91% 0.5 mph E0.8 kmh E 3.9 mph6.3 kmh 29.60 in1002.4 mb 0.00 in0.0 mm 0.00 in0.0 mm 0.00 in0.0 mm
01:45 AM 28.5°F-1.9°C 26.5°F-3.1°C 92% 0.7 mph E1.1 kmh E 3.9 mph6.3 kmh 29.60 in1002.4 mb 0.00 in0.0 mm 0.00 in0.0 mm 0.00 in0.0 mm
02:00 AM 28.3°F-2.1°C 26.3°F-3.2°C 92% 0.3 mph ENE0.5 kmh ENE 3.9 mph6.3 kmh 29.60 in1002.4 mb 0.00 in0.0 mm 0.00 in0.0 mm 0.00 in0.0 mm
02:15 AM 28.1°F-2.2°C 26.4°F-3.1°C 93% Calm Calm 0.8 mph1.3 kmh 29.59 in1002.0 mb 0.00 in0.0 mm 0.00 in0.0 mm 0.00 in0.0 mm
02:30 AM 27.9°F-2.3°C 26.7°F-2.9°C 95% 0.1 mph E0.2 kmh E 2.8 mph4.5 kmh 29.59 in1002.0 mb 0.00 in0.0 mm 0.00 in0.0 mm 0.00 in0.0 mm
02:45 AM 27.6°F-2.4°C 26.3°F-3.2°C 95% Calm Calm 0.8 mph1.3 kmh 29.59 in1002.0 mb 0.00 in0.0 mm 0.00 in0.0 mm 0.00 in0.0 mm
03:00 AM 27.2°F-2.7°C 24.9°F-3.9°C 91% 0.3 mph E0.5 kmh E 2.8 mph4.5 kmh 29.59 in1002.0 mb 0.00 in0.0 mm 0.00 in0.0 mm 0.00 in0.0 mm
03:15 AM 26.9°F-2.8°C 24.6°F-4.1°C 91% 0.3 mph E0.5 kmh E 2.8 mph4.5 kmh 29.58 in1001.7 mb 0.00 in0.0 mm 0.00 in0.0 mm 0.00 in0.0 mm
03:30 AM 26.9°F-2.8°C 24.6°F-4.1°C 91% Calm Calm -- 29.57 in1001.4 mb 0.00 in0.0 mm 0.00 in0.0 mm 0.00 in0.0 mm
03:45 AM 26.5°F-3.1°C 24.2°F-4.3°C 91% Calm Calm -- 29.57 in1001.4 mb 0.00 in0.0 mm 0.00 in0.0 mm 0.00 in0.0 mm
04:00 AM 26.3°F-3.2°C 24.3°F-4.3°C 92% Calm Calm -- 29.56 in1001.0 mb 0.00 in0.0 mm 0.00 in0.0 mm 0.00 in0.0 mm
04:15 AM 26.3°F-3.2°C 24.3°F-4.3°C 92% Calm Calm -- 29.56 in1001.0 mb 0.00 in0.0 mm 0.00 in0.0 mm 0.00 in0.0 mm
04:30 AM 26.3°F-3.2°C 24.3°F-4.3°C 92% Calm Calm -- 29.56 in1001.0 mb 0.00 in0.0 mm 0.00 in0.0 mm 0.00 in0.0 mm
04:45 AM 26.3°F-3.2°C 24.6°F-4.1°C 93% Calm Calm -- 29.56 in1001.0 mb 0.00 in0.0 mm 0.00 in0.0 mm 0.00 in0.0 mm
05:00 AM 26.3°F-3.2°C 24.6°F-4.1°C 93% Calm Calm -- 29.56 in1001.0 mb 0.00 in0.0 mm 0.00 in0.0 mm 0.00 in0.0 mm
05:15 AM 26.3°F-3.2°C 24.6°F-4.1°C 93% Calm Calm -- 29.56 in1001.0 mb 0.00 in0.0 mm 0.00 in0.0 mm 0.00 in0.0 mm
05:30 AM 26.5°F-3.1°C 24.8°F-4.0°C 93% Calm Calm -- 29.56 in1001.0 mb 0.00 in0.0 mm 0.00 in0.0 mm 0.00 in0.0 mm
05:45 AM 26.3°F-3.2°C 24.6°F-4.1°C 93% Calm Calm -- 29.55 in1000.7 mb 0.00 in0.0 mm 0.00 in0.0 mm 0.00 in0.0 mm
06:00 AM 26.3°F-3.2°C 25.1°F-3.8°C 95% Calm Calm -- 29.55 in1000.7 mb 0.00 in0.0 mm 0.00 in0.0 mm 0.00 in0.0 mm
06:15 AM 26.3°F-3.2°C 25.1°F-3.8°C 95% Calm Calm -- 29.55 in1000.7 mb 0.00 in0.0 mm 0.00 in0.0 mm 0.00 in0.0 mm
06:30 AM 26.3°F-3.2°C 25.1°F-3.8°C 95% Calm Calm -- 29.55 in1000.7 mb 0.00 in0.0 mm 0.00 in0.0 mm 0.00 in0.0 mm
06:45 AM 26.3°F-3.2°C 25.1°F-3.8°C 95% Calm Calm -- 29.55 in1000.7 mb 0.00 in0.0 mm 0.00 in0.0 mm 0.00 in0.0 mm
07:00 AM 26.1°F-3.3°C 24.4°F-4.2°C 93% Calm Calm -- 29.54 in1000.3 mb 0.00 in0.0 mm 0.00 in0.0 mm 0.00 in0.0 mm
07:15 AM 26.1°F-3.3°C 24.4°F-4.2°C 93% Calm Calm -- 29.55 in1000.7 mb 0.00 in0.0 mm 0.00 in0.0 mm 0.00 in0.0 mm
07:30 AM 26.3°F-3.2°C 25.1°F-3.8°C 95% Calm Calm -- 29.55 in1000.7 mb 0.00 in0.0 mm 0.00 in0.0 mm 0.00 in0.0 mm
07:45 AM 26.3°F-3.2°C 25.1°F-3.8°C 95% Calm Calm -- 29.55 in1000.7 mb 0.00 in0.0 mm 0.00 in0.0 mm 0.00 in0.0 mm
08:00 AM 26.3°F-3.2°C 25.1°F-3.8°C 95% Calm Calm -- 29.55 in1000.7 mb 0.00 in0.0 mm 0.00 in0.0 mm 0.00 in0.0 mm
08:15 AM 26.5°F-3.1°C 25.5°F-3.6°C 96% Calm Calm -- 29.55 in1000.7 mb 0.00 in0.0 mm 0.00 in0.0 mm 0.00 in0.0 mm
08:30 AM 26.9°F-2.8°C 25.9°F-3.4°C 96% Calm Calm -- 29.55 in1000.7 mb 0.00 in0.0 mm 0.00 in0.0 mm 0.00 in0.0 mm
08:45 AM 27.6°F-2.4°C 27.6°F-2.4°C 100% Calm Calm -- 29.55 in1000.7 mb 0.00 in0.0 mm 0.00 in0.0 mm 0.00 in0.0 mm
09:00 AM 28.1°F-2.2°C 28.1°F-2.2°C 100% Calm Calm -- 29.55 in1000.7 mb 0.00 in0.0 mm 0.00 in0.0 mm 0.00 in0.0 mm
09:15 AM 28.1°F-2.2°C 28.1°F-2.2°C 100% Calm Calm -- 29.55 in1000.7 mb 0.00 in0.0 mm 0.00 in0.0 mm 0.00 in0.0 mm
09:30 AM 28.3°F-2.1°C 28.3°F-2.1°C 100% Calm Calm -- 29.55 in1000.7 mb 0.00 in0.0 mm 0.00 in0.0 mm 0.00 in0.0 mm
09:45 AM 28.8°F-1.8°C 28.8°F-1.8°C 100% Calm Calm -- 29.55 in1000.7 mb 0.00 in0.0 mm 0.00 in0.0 mm 0.00 in0.0 mm
10:00 AM 29.4°F-1.4°C 29.4°F-1.4°C 100% Calm Calm -- 29.55 in1000.7 mb 0.00 in0.0 mm 0.00 in0.0 mm 0.00 in0.0 mm
10:15 AM 30.3°F-0.9°C 30.3°F-0.9°C 100% Calm Calm -- 29.55 in1000.7 mb 0.00 in0.0 mm 0.00 in0.0 mm 0.00 in0.0 mm
10:30 AM 30.3°F-0.9°C 29.8°F-1.2°C 98% Calm Calm -- 29.55 in1000.7 mb 0.00 in0.0 mm 0.00 in0.0 mm 0.00 in0.0 mm
10:45 AM 29.9°F-1.2°C 29.2°F-1.6°C 97% Calm Calm -- 29.55 in1000.7 mb 0.00 in0.0 mm 0.00 in0.0 mm 0.00 in0.0 mm
11:00 AM 30.5°F-0.8°C 30.0°F-1.1°C 98% Calm Calm -- 29.55 in1000.7 mb 0.00 in0.0 mm 0.00 in0.0 mm 0.00 in0.0 mm
11:15 AM 31.2°F-0.4°C 30.2°F-1.0°C 96% 0.7 mph NE1.1 kmh NE 3.9 mph6.3 kmh 29.54 in1000.3 mb 0.00 in0.0 mm 0.00 in0.0 mm 0.00 in0.0 mm
11:30 AM 31.2°F-0.4°C 29.9°F-1.2°C 95% 1.6 mph NE2.6 kmh NE 5.6 mph9.0 kmh 29.53 in1000.0 mb 0.01 in0.3 mm 0.04 in1.0 mm 0.01 in0.3 mm
11:45 AM 31.9°F-0.1°C 30.6°F-0.8°C 95% 0.5 mph NE0.8 kmh NE 5.6 mph9.0 kmh 29.53 in1000.0 mb 0.04 in1.0 mm 0.12 in3.0 mm 0.04 in1.0 mm
12:00 PM 31.9°F-0.1°C 30.1°F-1.1°C 93% 1.7 mph NE2.7 kmh NE 5.6 mph9.0 kmh 29.52 in999.7 mb 0.05 in1.3 mm 0.01 in0.3 mm 0.05 in1.3 mm
12:15 PM 32.3°F0.2°C 30.2°F-1.0°C 92% 1.5 mph NE2.4 kmh NE 5.6 mph9.0 kmh 29.51 in999.3 mb 0.07 in1.8 mm 0.08 in2.0 mm 0.07 in1.8 mm
12:30 PM 32.3°F0.2°C 29.9°F-1.2°C 91% 3.0 mph NE4.8 kmh NE 6.7 mph10.8 kmh 29.51 in999.3 mb 0.06 in1.5 mm 0.00 in0.0 mm 0.07 in1.8 mm
12:45 PM 32.4°F0.2°C 30.1°F-1.1°C 91% 3.6 mph NNE5.8 kmh NNE 8.7 mph14.0 kmh 29.50 in999.0 mb 0.04 in1.0 mm 0.00 in0.0 mm 0.07 in1.8 mm
01:00 PM 33.3°F0.7°C 30.7°F-0.7°C 90% 2.0 mph NE3.2 kmh NE 5.6 mph9.0 kmh 29.50 in999.0 mb 0.04 in1.0 mm 0.00 in0.0 mm 0.08 in2.0 mm
01:15 PM 33.9°F1.1°C 30.7°F-0.7°C 88% 1.9 mph NE3.1 kmh NE 5.6 mph9.0 kmh 29.49 in998.6 mb 0.01 in0.3 mm 0.00 in0.0 mm 0.08 in2.0 mm
01:30 PM 33.3°F0.7°C 29.9°F-1.2°C 87% 1.7 mph NE2.7 kmh NE 5.6 mph9.0 kmh 29.48 in998.3 mb 0.01 in0.3 mm 0.00 in0.0 mm 0.08 in2.0 mm
01:45 PM 32.8°F0.4°C 29.4°F-1.4°C 87% 1.9 mph NE3.1 kmh NE 6.7 mph10.8 kmh 29.47 in998.0 mb 0.01 in0.3 mm 0.00 in0.0 mm 0.08 in2.0 mm
02:00 PM 33.2°F0.7°C 29.7°F-1.3°C 87% 1.7 mph NE2.7 kmh NE 8.7 mph14.0 kmh 29.48 in998.3 mb 0.00 in0.0 mm 0.00 in0.0 mm 0.08 in2.0 mm
02:15 PM 33.0°F0.6°C 29.5°F-1.4°C 87% 1.4 mph NE2.3 kmh NE 5.6 mph9.0 kmh 29.48 in998.3 mb 0.00 in0.0 mm 0.00 in0.0 mm 0.08 in2.0 mm
02:30 PM 32.8°F0.4°C 29.4°F-1.4°C 87% 1.1 mph NE1.8 kmh NE 4.8 mph7.7 kmh 29.48 in998.3 mb 0.00 in0.0 mm 0.00 in0.0 mm 0.08 in2.0 mm
02:45 PM 32.8°F0.4°C 29.4°F-1.4°C 87% 0.8 mph NE1.3 kmh NE 4.8 mph7.7 kmh 29.48 in998.3 mb 0.00 in0.0 mm 0.00 in0.0 mm 0.08 in2.0 mm
03:00 PM 32.6°F0.3°C 29.5°F-1.4°C 88% Calm Calm 2.0 mph3.2 kmh 29.48 in998.3 mb 0.00 in0.0 mm 0.00 in0.0 mm 0.08 in2.0 mm
03:15 PM 32.6°F0.3°C 29.5°F-1.4°C 88% 0.3 mph NE0.5 kmh NE 2.8 mph4.5 kmh 29.48 in998.3 mb 0.00 in0.0 mm 0.00 in0.0 mm 0.08 in2.0 mm
03:30 PM 32.4°F0.2°C 29.3°F-1.5°C 88% 1.0 mph NE1.6 kmh NE 3.9 mph6.3 kmh 29.49 in998.6 mb 0.00 in0.0 mm 0.00 in0.0 mm 0.08 in2.0 mm
03:45 PM 32.1°F0.1°C 28.9°F-1.7°C 88% 3.3 mph NE5.3 kmh NE 7.5 mph12.1 kmh 29.50 in999.0 mb 0.00 in0.0 mm 0.00 in0.0 mm 0.08 in2.0 mm
04:00 PM 31.4°F-0.3°C 28.8°F-1.8°C 90% 1.2 mph NE1.9 kmh NE 5.6 mph9.0 kmh 29.50 in999.0 mb 0.00 in0.0 mm 0.00 in0.0 mm 0.08 in2.0 mm
04:15 PM 31.4°F-0.3°C 29.0°F-1.7°C 91% 0.4 mph NE0.6 kmh NE 3.9 mph6.3 kmh 29.50 in999.0 mb 0.00 in0.0 mm 0.00 in0.0 mm 0.08 in2.0 mm
04:30 PM 31.2°F-0.4°C 29.1°F-1.6°C 92% 0.6 mph NE1.0 kmh NE 3.9 mph6.3 kmh 29.50 in999.0 mb 0.00 in0.0 mm 0.00 in0.0 mm 0.08 in2.0 mm
04:45 PM 31.0°F-0.6°C 28.9°F-1.7°C 92% 0.6 mph NE1.0 kmh NE 3.9 mph6.3 kmh 29.51 in999.3 mb 0.00 in0.0 mm 0.00 in0.0 mm 0.08 in2.0 mm
05:00 PM 31.0°F-0.6°C 29.7°F-1.3°C 95% 1.3 mph NE2.1 kmh NE 3.9 mph6.3 kmh 29.52 in999.7 mb 0.00 in0.0 mm 0.00 in0.0 mm 0.08 in2.0 mm
05:15 PM 30.3°F-0.9°C 29.8°F-1.2°C 98% 0.8 mph NE1.3 kmh NE 3.9 mph6.3 kmh 29.52 in999.7 mb 0.00 in0.0 mm 0.00 in0.0 mm 0.08 in2.0 mm
05:30 PM 30.1°F-1.1°C 29.6°F-1.3°C 98% Calm Calm -- 29.52 in999.7 mb 0.00 in0.0 mm 0.00 in0.0 mm 0.08 in2.0 mm
05:45 PM 30.1°F-1.1°C 30.1°F-1.1°C 100% Calm Calm -- 29.52 in999.7 mb 0.00 in0.0 mm 0.00 in0.0 mm 0.08 in2.0 mm
06:00 PM 30.1°F-1.1°C 30.1°F-1.1°C 100% Calm Calm -- 29.52 in999.7 mb 0.00 in0.0 mm 0.00 in0.0 mm 0.08 in2.0 mm
06:15 PM 30.1°F-1.1°C 30.1°F-1.1°C 100% Calm Calm -- 29.53 in1000.0 mb 0.00 in0.0 mm 0.00 in0.0 mm 0.08 in2.0 mm
06:30 PM 30.1°F-1.1°C 30.1°F-1.1°C 100% Calm Calm -- 29.53 in1000.0 mb 0.00 in0.0 mm 0.00 in0.0 mm 0.08 in2.0 mm
06:45 PM 30.1°F-1.1°C 30.1°F-1.1°C 100% Calm Calm -- 29.53 in1000.0 mb 0.00 in0.0 mm 0.00 in0.0 mm 0.08 in2.0 mm
07:00 PM 29.9°F-1.2°C 29.9°F-1.2°C 100% Calm Calm -- 29.53 in1000.0 mb 0.00 in0.0 mm 0.00 in0.0 mm 0.08 in2.0 mm
07:15 PM 29.7°F-1.3°C 29.7°F-1.3°C 100% Calm Calm -- 29.53 in1000.0 mb 0.00 in0.0 mm 0.00 in0.0 mm 0.08 in2.0 mm
07:30 PM 29.6°F-1.3°C 29.6°F-1.3°C 100% Calm Calm -- 29.53 in1000.0 mb 0.00 in0.0 mm 0.00 in0.0 mm 0.08 in2.0 mm
07:45 PM 29.6°F-1.3°C 29.6°F-1.3°C 100% Calm Calm -- 29.53 in1000.0 mb 0.00 in0.0 mm 0.00 in0.0 mm 0.08 in2.0 mm
08:00 PM 29.9°F-1.2°C 29.9°F-1.2°C 100% Calm Calm -- 29.53 in1000.0 mb 0.00 in0.0 mm 0.00 in0.0 mm 0.08 in2.0 mm
08:15 PM 29.7°F-1.3°C 29.7°F-1.3°C 100% Calm Calm -- 29.53 in1000.0 mb 0.00 in0.0 mm 0.00 in0.0 mm 0.08 in2.0 mm
08:30 PM 29.6°F-1.3°C 29.6°F-1.3°C 100% Calm Calm -- 29.53 in1000.0 mb 0.00 in0.0 mm 0.00 in0.0 mm 0.08 in2.0 mm
08:45 PM 29.6°F-1.3°C 29.6°F-1.3°C 100% Calm Calm -- 29.53 in1000.0 mb 0.00 in0.0 mm 0.00 in0.0 mm 0.08 in2.0 mm
09:00 PM 29.6°F-1.3°C 29.6°F-1.3°C 100% Calm Calm -- 29.54 in1000.3 mb 0.00 in0.0 mm 0.00 in0.0 mm 0.08 in2.0 mm
09:15 PM 29.6°F-1.3°C 29.6°F-1.3°C 100% Calm Calm -- 29.54 in1000.3 mb 0.00 in0.0 mm 0.00 in0.0 mm 0.08 in2.0 mm
09:30 PM 29.4°F-1.4°C 29.4°F-1.4°C 100% Calm Calm -- 29.53 in1000.0 mb 0.00 in0.0 mm 0.00 in0.0 mm 0.08 in2.0 mm
09:45 PM 29.4°F-1.4°C 29.4°F-1.4°C 100% Calm Calm -- 29.54 in1000.3 mb 0.00 in0.0 mm 0.00 in0.0 mm 0.08 in2.0 mm
10:00 PM 29.4°F-1.4°C 29.4°F-1.4°C 100% Calm Calm -- 29.53 in1000.0 mb 0.00 in0.0 mm 0.00 in0.0 mm 0.08 in2.0 mm
10:15 PM 29.2°F-1.6°C 29.2°F-1.6°C 100% Calm Calm -- 29.52 in999.7 mb 0.00 in0.0 mm 0.00 in0.0 mm 0.08 in2.0 mm
10:30 PM 29.4°F-1.4°C 29.4°F-1.4°C 100% Calm Calm -- 29.52 in999.7 mb 0.00 in0.0 mm 0.00 in0.0 mm 0.08 in2.0 mm
10:45 PM 29.6°F-1.3°C 29.6°F-1.3°C 100% Calm Calm 2.8 mph4.5 kmh 29.52 in999.7 mb 0.00 in0.0 mm 0.00 in0.0 mm 0.08 in2.0 mm
11:00 PM 30.3°F-0.9°C 30.3°F-0.9°C 100% 1.3 mph WSW2.1 kmh WSW 4.8 mph7.7 kmh 29.52 in999.7 mb 0.00 in0.0 mm 0.00 in0.0 mm 0.08 in2.0 mm
11:15 PM 30.5°F-0.8°C 30.5°F-0.8°C 100% 1.7 mph WSW2.7 kmh WSW 7.5 mph12.1 kmh 29.52 in999.7 mb 0.00 in0.0 mm 0.00 in0.0 mm 0.08 in2.0 mm
11:30 PM 30.5°F-0.8°C 30.5°F-0.8°C 100% 1.8 mph W2.9 kmh W 5.6 mph9.0 kmh 29.52 in999.7 mb 0.00 in0.0 mm 0.00 in0.0 mm 0.08 in2.0 mm
11:45 PM 30.3°F-0.9°C 30.3°F-0.9°C 100% 0.8 mph W1.3 kmh W 5.6 mph9.0 kmh 29.52 in999.7 mb 0.00 in0.0 mm 0.00 in0.0 mm 0.08 in2.0 mm